Time;durP1;ratioP1;P1;durP2;ratioP2;P2;SDS_P1;SDS_P2;PMS_P1;PMS_P2;Temp;Humidity;BMP_temperature;BMP_pressure;BME280_temperature;BME280_humidity;BME280_pressure;Samples;Min_cycle;Max_cycle;Signal;HPM_P1;HPM_P2
2022/04/26 03:37:24;;;;;;;45.93;29.47;;;9.60;99.90;;;;;;4935500;29;20981;-73
2022/04/26 03:39:50;;;;;;;50.30;30.20;;;9.60;99.90;;;;;;4935605;29;20418;-73
2022/04/26 03:42:15;;;;;;;43.07;29.40;;;9.60;99.90;;;;;;4934787;29;20237;-75
2022/04/26 03:44:42;;;;;;;45.60;29.10;;;9.60;99.90;;;;;;4934815;29;20188;-70
2022/04/26 03:47:08;;;;;;;43.17;29.83;;;9.60;99.90;;;;;;4935080;29;20175;-75
2022/04/26 03:49:34;;;;;;;48.27;31.80;;;9.60;99.90;;;;;;4941684;29;20497;-73
2022/04/26 03:52:00;;;;;;;44.47;27.30;;;9.50;99.90;;;;;;4953088;28;20819;-75
2022/04/26 03:54:25;;;;;;;47.60;28.43;;;9.50;99.90;;;;;;4954502;28;20727;-73
2022/04/26 03:56:51;;;;;;;46.83;27.90;;;9.50;99.90;;;;;;4954704;28;20175;-74
2022/04/26 03:59:18;;;;;;;36.17;25.00;;;9.50;99.90;;;;;;4954449;28;20540;-74
2022/04/26 04:01:45;;;;;;;31.67;22.23;;;9.50;99.90;;;;;;4952168;29;20190;-73
2022/04/26 04:04:10;;;;;;;35.70;23.83;;;9.50;99.90;;;;;;4954181;28;20481;-74
2022/04/26 04:06:36;;;;;;;36.20;23.73;;;9.40;99.90;;;;;;4954418;28;20422;-72
2022/04/26 04:09:02;;;;;;;40.57;26.10;;;9.40;99.90;;;;;;4954003;28;20178;-71
2022/04/26 04:11:28;;;;;;;37.37;24.30;;;9.40;99.90;;;;;;4953255;28;20246;-73
2022/04/26 04:13:53;;;;;;;37.47;24.77;;;9.40;99.90;;;;;;4953721;28;20453;-73
2022/04/26 04:16:19;;;;;;;36.03;24.03;;;9.40;99.90;;;;;;4954063;28;20186;-69
2022/04/26 04:21:29;;;;;;;39.90;26.07;;;9.40;99.90;;;;;;4955237;28;20572;-71
2022/04/26 04:23:54;;;;;;;35.63;25.20;;;9.40;99.90;;;;;;4958005;28;20418;-73
2022/04/26 04:26:20;;;;;;;39.43;25.97;;;9.40;99.90;;;;;;4952457;28;20199;-71
2022/04/26 04:28:45;;;;;;;39.80;26.97;;;9.40;99.90;;;;;;4943578;29;20255;-71
2022/04/26 04:31:11;;;;;;;42.90;28.17;;;9.40;99.90;;;;;;4942893;28;20232;-71
2022/04/26 04:33:39;;;;;;;44.77;28.87;;;9.40;99.90;;;;;;4953829;28;20679;-71
2022/04/26 04:36:05;;;;;;;43.70;28.80;;;9.40;99.90;;;;;;4954023;28;20530;-72
2022/04/26 04:38:30;;;;;;;41.30;25.77;;;9.40;99.90;;;;;;4948223;28;20477;-72
2022/04/26 04:40:56;;;;;;;40.50;27.43;;;9.40;99.90;;;;;;4937926;28;20485;-72
2022/04/26 04:43:22;;;;;;;50.13;30.37;;;9.40;99.90;;;;;;4933974;29;20183;-72
2022/04/26 04:45:47;;;;;;;48.50;29.90;;;9.40;99.90;;;;;;4934576;29;20179;-72
2022/04/26 04:48:13;;;;;;;44.40;29.70;;;9.40;99.90;;;;;;4934393;29;20229;-71
2022/04/26 04:50:39;;;;;;;45.40;27.53;;;9.40;99.90;;;;;;4933651;29;20648;-72
2022/04/26 04:53:05;;;;;;;41.97;26.93;;;9.40;99.90;;;;;;4933501;29;20465;-72
2022/04/26 04:55:31;;;;;;;44.23;30.00;;;9.40;99.90;;;;;;4934298;29;20264;-72
2022/04/26 04:57:57;;;;;;;45.27;28.70;;;9.40;99.90;;;;;;4934282;29;20514;-72
2022/04/26 05:00:22;;;;;;;49.00;29.00;;;9.40;99.90;;;;;;4933787;29;20967;-70
2022/04/26 05:02:48;;;;;;;41.10;27.07;;;9.50;99.90;;;;;;4933972;29;20234;-72
2022/04/26 05:05:13;;;;;;;39.80;27.40;;;9.40;99.90;;;;;;4934075;29;20183;-72
2022/04/26 05:07:39;;;;;;;44.00;28.77;;;9.50;99.90;;;;;;4933518;29;20724;-73
2022/04/26 05:10:06;;;;;;;46.13;28.70;;;9.50;99.90;;;;;;4933766;29;20659;-70
2022/04/26 05:12:32;;;;;;;46.27;29.33;;;9.60;99.90;;;;;;4942071;28;20311;-72
2022/04/26 05:14:58;;;;;;;52.33;31.33;;;9.50;99.90;;;;;;4953188;28;20811;-72
2022/04/26 05:17:23;;;;;;;48.63;28.20;;;9.50;99.90;;;;;;4952398;28;20421;-70
2022/04/26 05:19:49;;;;;;;44.77;30.57;;;9.50;99.90;;;;;;4952994;28;20183;-72
2022/04/26 05:22:14;;;;;;;42.00;29.10;;;9.50;99.90;;;;;;4952312;28;20206;-71
2022/04/26 05:24:54;;;;;;;45.03;28.60;;;9.50;99.90;;;;;;4952804;28;20191;-72
2022/04/26 05:27:31;;;;;;;42.90;28.17;;;9.60;99.90;;;;;;4952668;28;20854;-70
2022/04/26 05:29:57;;;;;;;44.30;27.97;;;9.50;99.90;;;;;;4953378;28;20802;-71
2022/04/26 05:32:24;;;;;;;41.70;27.27;;;9.50;99.90;;;;;;4952887;28;20472;-71
2022/04/26 05:34:59;;;;;;;34.07;25.20;;;9.60;99.90;;;;;;4953890;28;20460;-71
2022/04/26 05:37:25;;;;;;;37.30;25.30;;;9.70;99.90;;;;;;4953269;28;20889;-70
2022/04/26 05:39:51;;;;;;;38.47;25.63;;;9.70;99.90;;;;;;4953192;28;20925;-70
2022/04/26 05:42:16;;;;;;;41.20;27.00;;;9.70;99.90;;;;;;4952973;28;20442;-70
2022/04/26 05:44:42;;;;;;;40.57;28.37;;;9.70;99.90;;;;;;4953487;28;20208;-69
2022/04/26 05:47:08;;;;;;;44.63;27.33;;;9.70;99.90;;;;;;4952759;28;20178;-71
2022/04/26 05:49:35;;;;;;;39.00;27.70;;;9.70;99.90;;;;;;4952432;28;20535;-71
2022/04/26 05:52:02;;;;;;;38.07;27.30;;;9.80;99.90;;;;;;4951534;28;20469;-69
2022/04/26 05:54:28;;;;;;;46.97;28.77;;;9.80;99.90;;;;;;4952775;28;20409;-71
2022/04/26 05:56:53;;;;;;;39.73;26.20;;;9.80;99.90;;;;;;4952948;28;20407;-71
2022/04/26 05:59:22;;;;;;;37.47;25.87;;;9.80;99.90;;;;;;4952943;28;20185;-69
2022/04/26 06:01:49;;;;;;;38.37;25.87;;;9.80;99.90;;;;;;4951865;28;20955;-70
2022/04/26 06:04:14;;;;;;;37.83;27.00;;;9.80;99.90;;;;;;4952140;28;20508;-70
2022/04/26 06:06:40;;;;;;;32.70;23.53;;;9.80;99.90;;;;;;4951861;28;20505;-70
2022/04/26 06:09:06;;;;;;;39.30;26.30;;;9.70;99.90;;;;;;4952270;28;20215;-70
2022/04/26 06:11:31;;;;;;;38.20;25.60;;;9.70;99.90;;;;;;4952898;28;20214;-71
2022/04/26 06:13:57;;;;;;;41.30;26.10;;;9.70;99.90;;;;;;4956582;28;20567;-72
2022/04/26 06:16:23;;;;;;;39.57;27.53;;;9.70;99.90;;;;;;4956448;28;20183;-70
2022/04/26 06:18:49;;;;;;;39.77;25.70;;;9.80;99.90;;;;;;4957800;28;20419;-71
2022/04/26 06:21:15;;;;;;;37.20;23.60;;;9.90;99.90;;;;;;4960163;28;20706;-71
2022/04/26 06:23:41;;;;;;;34.07;24.13;;;9.90;99.90;;;;;;4956243;28;20176;-69
2022/04/26 06:26:06;;;;;;;40.57;25.53;;;9.90;99.90;;;;;;4956116;28;20902;-70
2022/04/26 06:28:32;;;;;;;33.00;23.90;;;9.90;99.90;;;;;;4956103;28;20411;-70
2022/04/26 06:30:58;;;;;;;32.57;24.83;;;9.90;99.90;;;;;;4953534;28;20195;-70
2022/04/26 06:33:23;;;;;;;33.60;23.60;;;10.00;99.90;;;;;;4955129;28;20531;-69
2022/04/26 06:35:49;;;;;;;30.23;22.40;;;10.00;99.90;;;;;;4955430;28;20538;-71
2022/04/26 06:38:16;;;;;;;33.37;23.13;;;10.00;99.90;;;;;;4955670;28;20263;-70
2022/04/26 06:40:42;;;;;;;29.37;21.23;;;10.00;99.90;;;;;;4955108;28;20187;-68
2022/04/26 06:43:11;;;;;;;29.23;22.03;;;10.00;99.90;;;;;;4955656;28;20915;-71
2022/04/26 06:45:37;;;;;;;26.00;20.00;;;10.00;99.90;;;;;;4955197;28;20230;-72
2022/04/26 06:48:07;;;;;;;29.27;20.47;;;10.00;99.90;;;;;;4955605;28;20424;-70
2022/04/26 06:50:32;;;;;;;27.63;19.57;;;10.00;99.90;;;;;;4955038;28;20201;-70
2022/04/26 06:52:58;;;;;;;24.90;18.67;;;10.00;99.90;;;;;;4955355;28;20467;-70
2022/04/26 06:55:23;;;;;;;27.50;19.07;;;10.00;99.90;;;;;;4954840;28;20644;-70
2022/04/26 06:57:49;;;;;;;26.17;17.50;;;10.00;99.90;;;;;;4955652;28;20172;-70
2022/04/26 07:00:15;;;;;;;25.20;18.80;;;10.00;99.90;;;;;;4954957;28;20715;-69
2022/04/26 07:02:40;;;;;;;23.70;17.90;;;10.00;99.90;;;;;;4954702;28;20246;-68
2022/04/26 07:05:07;;;;;;;27.20;19.70;;;10.00;99.90;;;;;;4955049;28;20419;-70
2022/04/26 07:07:32;;;;;;;25.70;18.40;;;10.00;99.90;;;;;;4955395;28;20677;-69
2022/04/26 07:09:57;;;;;;;25.50;19.43;;;10.10;99.90;;;;;;4954256;28;20507;-69
2022/04/26 07:12:23;;;;;;;24.20;18.40;;;10.10;99.90;;;;;;4954156;28;20299;-70
2022/04/26 07:14:48;;;;;;;24.10;17.97;;;10.20;99.90;;;;;;4954867;28;20180;-72
2022/04/26 07:17:17;;;;;;;25.80;20.30;;;10.30;99.90;;;;;;4954186;28;20184;-72
2022/04/26 07:19:42;;;;;;;22.03;16.70;;;10.40;99.90;;;;;;4954919;28;20266;-71
2022/04/26 07:22:09;;;;;;;25.37;18.60;;;10.50;99.90;;;;;;4953392;28;20521;-71
2022/04/26 07:24:35;;;;;;;23.23;17.50;;;10.50;99.90;;;;;;4955072;28;20668;-71
2022/04/26 07:27:01;;;;;;;23.00;18.10;;;10.60;99.90;;;;;;4954795;28;20789;-69
2022/04/26 07:29:27;;;;;;;17.93;16.03;;;10.80;99.90;;;;;;4954848;28;20424;-72
2022/04/26 07:31:53;;;;;;;19.40;15.10;;;10.90;99.90;;;;;;4954010;28;20287;-71
2022/04/26 07:34:21;;;;;;;17.03;15.07;;;11.20;99.90;;;;;;4954081;28;20408;-68
2022/04/26 07:36:53;;;;;;;14.10;12.50;;;11.50;99.90;;;;;;4954639;28;20183;-71
2022/04/26 07:39:18;;;;;;;13.17;11.40;;;11.60;99.90;;;;;;4954589;28;20483;-70
2022/04/26 07:41:48;;;;;;;13.57;11.00;;;11.50;99.90;;;;;;4953470;28;20440;-71
2022/04/26 07:44:14;;;;;;;12.63;10.07;;;11.50;99.90;;;;;;4954553;28;20270;-71
2022/04/26 07:46:43;;;;;;;13.80;10.80;;;11.50;99.90;;;;;;4954619;28;20892;-71
2022/04/26 07:49:10;;;;;;;10.40;9.33;;;11.50;99.90;;;;;;4954353;28;20523;-71
2022/04/26 07:51:36;;;;;;;11.33;10.23;;;11.50;99.90;;;;;;4952974;28;20476;-71
2022/04/26 07:54:02;;;;;;;12.50;11.00;;;11.90;99.90;;;;;;4954246;28;20416;-69
2022/04/26 07:56:27;;;;;;;13.77;10.60;;;12.10;99.90;;;;;;4954536;28;20180;-71
2022/04/26 07:58:54;;;;;;;10.63;9.50;;;12.10;99.90;;;;;;4953958;28;20439;-70
2022/04/26 08:01:20;;;;;;;11.60;10.40;;;11.90;99.90;;;;;;4953601;28;20203;-70
2022/04/26 08:03:45;;;;;;;11.17;10.00;;;11.80;99.90;;;;;;4954750;28;20409;-70
2022/04/26 08:06:11;;;;;;;13.80;10.93;;;11.70;99.90;;;;;;4954203;28;20189;-71
2022/04/26 08:08:36;;;;;;;13.80;11.07;;;11.60;99.90;;;;;;4954560;28;20211;-72
2022/04/26 08:11:03;;;;;;;11.83;9.83;;;11.50;99.90;;;;;;4952620;28;20719;-70
2022/04/26 08:13:29;;;;;;;12.13;10.20;;;11.40;99.90;;;;;;4954316;28;20538;-71
2022/04/26 08:15:54;;;;;;;11.27;10.00;;;11.40;99.90;;;;;;4954005;28;20408;-71
2022/04/26 08:18:20;;;;;;;10.57;9.40;;;11.40;99.90;;;;;;4954025;28;20653;-71
2022/04/26 08:20:46;;;;;;;11.80;10.60;;;11.40;99.90;;;;;;4953552;28;20185;-71
2022/04/26 08:23:12;;;;;;;11.23;10.13;;;11.40;99.90;;;;;;4953280;28;20173;-71
2022/04/26 08:28:22;;;;;;;15.73;10.73;;;11.40;99.90;;;;;;4953861;29;20185;-70
2022/04/26 08:30:47;;;;;;;11.13;10.00;;;11.50;99.90;;;;;;4952669;28;20420;-71
2022/04/26 08:33:13;;;;;;;12.97;10.10;;;11.50;99.90;;;;;;4953453;28;20306;-71
2022/04/26 08:35:39;;;;;;;12.37;10.60;;;11.60;99.90;;;;;;4953246;28;20185;-71
2022/04/26 08:38:05;;;;;;;16.60;9.97;;;11.70;99.90;;;;;;4953454;28;20180;-71
2022/04/26 08:40:31;;;;;;;12.90;11.63;;;11.70;99.90;;;;;;4952922;28;20604;-70
2022/04/26 08:42:59;;;;;;;12.27;10.27;;;11.90;99.90;;;;;;4953604;28;20200;-71
2022/04/26 08:45:25;;;;;;;12.50;9.53;;;12.10;99.90;;;;;;4952389;28;20507;-70
2022/04/26 08:53:21;;;;;;;14.03;10.77;;;12.70;99.90;;;;;;4953390;28;20478;-69
2022/04/26 08:55:52;;;;;;;14.17;10.27;;;12.80;99.90;;;;;;4953604;28;20419;-71
2022/04/26 08:58:18;;;;;;;13.07;10.97;;;12.60;99.90;;;;;;4953522;28;20624;-70
2022/04/26 09:01:18;;;;;;;16.03;9.40;;;12.50;99.90;;;;;;4952054;28;20837;-70
2022/04/26 09:03:55;;;;;;;11.20;9.37;;;12.40;99.90;;;;;;4953478;28;21032;-71
2022/04/26 09:06:36;;;;;;;10.97;9.03;;;12.30;99.90;;;;;;4952939;28;20423;-70
2022/04/26 09:09:17;;;;;;;13.27;9.30;;;12.10;99.90;;;;;;4952889;28;20785;-68
2022/04/26 09:11:43;;;;;;;9.90;8.90;;;12.10;99.90;;;;;;4951759;28;20496;-71
2022/04/26 09:14:29;;;;;;;13.70;9.57;;;12.30;99.90;;;;;;4953196;28;20412;-71
2022/04/26 09:17:10;;;;;;;15.10;9.70;;;12.60;99.90;;;;;;4953119;28;21011;-70
2022/04/26 09:19:53;;;;;;;9.90;8.87;;;13.10;99.90;;;;;;4953007;28;20416;-72
2022/04/26 09:22:27;;;;;;;13.03;9.00;;;13.30;99.90;;;;;;4952263;28;20495;-71
2022/04/26 09:25:07;;;;;;;19.37;9.80;;;13.50;99.90;;;;;;4952457;28;20507;-72
2022/04/26 09:27:40;;;;;;;14.20;9.67;;;13.60;99.90;;;;;;4952805;28;20505;-69
2022/04/26 09:30:13;;;;;;;10.27;9.27;;;13.90;99.90;;;;;;4952872;28;20423;-69
2022/04/26 09:32:49;;;;;;;16.37;8.43;;;14.20;99.90;;;;;;4952262;28;20480;-72
2022/04/26 09:35:32;;;;;;;11.77;8.00;;;14.60;99.90;;;;;;4953536;28;20412;-72
2022/04/26 09:37:59;;;;;;;12.60;9.50;;;15.10;99.90;;;;;;4953637;28;20419;-71
2022/04/26 09:40:28;;;;;;;11.53;8.70;;;15.60;99.90;;;;;;4952086;28;20783;-70
2022/04/26 09:42:54;;;;;;;8.60;7.17;;;16.20;99.90;;;;;;4952261;28;20440;-70
2022/04/26 09:45:20;;;;;;;7.90;7.20;;;16.70;99.90;;;;;;4952100;28;20463;-70
2022/04/26 09:47:46;;;;;;;8.17;7.30;;;17.30;99.90;;;;;;4952483;28;20173;-70
2022/04/26 09:50:14;;;;;;;7.63;6.90;;;17.70;99.90;;;;;;4951860;28;20408;-71
2022/04/26 09:52:40;;;;;;;7.10;6.40;;;18.30;99.90;;;;;;4951708;28;20204;-71
2022/04/26 09:55:08;;;;;;;7.97;6.70;;;18.60;99.90;;;;;;4952456;28;20439;-71
2022/04/26 09:57:35;;;;;;;7.93;7.13;;;18.90;99.90;;;;;;4952573;28;20420;-71
2022/04/26 10:00:03;;;;;;;6.53;5.90;;;18.70;99.90;;;;;;4952171;28;20924;-68
2022/04/26 10:02:35;;;;;;;8.10;6.57;;;19.00;99.90;;;;;;4951819;28;20441;-71
2022/04/26 10:05:06;;;;;;;6.07;5.53;;;18.60;99.90;;;;;;4951815;28;20905;-68
2022/04/26 10:07:40;;;;;;;7.10;6.43;;;18.00;99.90;;;;;;4952497;28;20968;-71
2022/04/26 10:10:06;;;;;;;7.00;5.20;;;17.70;99.90;;;;;;4952105;28;20419;-71
2022/04/26 10:12:33;;;;;;;6.20;5.70;;;17.70;99.90;;;;;;4951575;28;20460;-71
2022/04/26 10:15:00;;;;;;;5.10;4.80;;;17.50;99.90;;;;;;4952354;28;20420;-71
2022/04/26 10:17:26;;;;;;;5.93;5.43;;;17.30;99.90;;;;;;4951918;28;20411;-71
2022/04/26 10:19:51;;;;;;;8.73;5.57;;;16.70;99.90;;;;;;4952024;28;20415;-70
2022/04/26 10:22:55;;;;;;;6.33;5.73;;;16.70;99.90;;;;;;4951421;28;20279;-71
2022/04/26 10:25:23;;;;;;;5.70;5.20;;;16.80;99.90;;;;;;4952232;28;20220;-69
2022/04/26 10:28:16;;;;;;;6.80;6.10;;;16.70;99.90;;;;;;4951921;28;20416;-71
2022/04/26 10:30:52;;;;;;;5.77;5.17;;;16.50;99.90;;;;;;4951533;28;20420;-70
2022/04/26 10:33:42;;;;;;;5.40;4.93;;;16.30;99.90;;;;;;4952094;28;20507;-71
2022/04/26 10:36:28;;;;;;;5.50;5.00;;;16.70;99.90;;;;;;4947021;28;20429;-70
2022/04/26 10:39:06;;;;;;;5.83;5.20;;;17.30;99.90;;;;;;4952376;28;20479;-71
2022/04/26 10:41:42;;;;;;;5.10;4.40;;;17.10;99.90;;;;;;4952060;28;20432;-72
2022/04/26 10:44:13;;;;;;;5.50;5.00;;;17.20;99.90;;;;;;4953308;28;20423;-71
2022/04/26 10:46:50;;;;;;;6.27;5.13;;;17.40;99.90;;;;;;4952488;28;20412;-71
2022/04/26 10:49:25;;;;;;;6.10;4.87;;;17.20;99.90;;;;;;4951912;28;20424;-71
2022/04/26 10:51:55;;;;;;;5.97;5.30;;;17.00;99.90;;;;;;4951420;28;20463;-71
2022/04/26 10:54:45;;;;;;;9.77;5.03;;;16.60;99.90;;;;;;4951626;28;20448;-70
2022/04/26 10:57:12;;;;;;;5.33;3.70;;;16.70;99.90;;;;;;4952752;28;20420;-71
2022/04/26 10:59:44;;;;;;;8.33;4.00;;;17.00;99.90;;;;;;4954686;28;20940;-71
2022/04/26 11:02:21;;;;;;;5.60;3.67;;;17.00;99.90;;;;;;4954373;28;20436;-71
2022/04/26 11:04:51;;;;;;;4.70;3.83;;;17.10;99.90;;;;;;4955435;28;20412;-70
2022/04/26 11:07:17;;;;;;;5.53;3.77;;;17.10;99.90;;;;;;4953573;28;20462;-71
2022/04/26 11:09:44;;;;;;;13.73;3.33;;;16.40;99.90;;;;;;4955071;28;20420;-71
2022/04/26 11:12:09;;;;;;;8.60;7.80;;;16.20;99.90;;;;;;4954717;28;20559;-70
2022/04/26 11:14:41;;;;;;;8.10;7.20;;;15.80;99.90;;;;;;4955529;28;20501;-68
2022/04/26 11:17:07;;;;;;;10.40;7.80;;;15.10;99.90;;;;;;4954492;28;20200;-72
2022/04/26 11:19:37;;;;;;;11.63;8.10;;;15.10;99.90;;;;;;4955137;28;20453;-71
2022/04/26 11:22:04;;;;;;;8.60;7.80;;;15.00;99.90;;;;;;4954333;28;20203;-70
2022/04/26 11:29:59;;;;;;;8.30;7.20;;;14.30;99.90;;;;;;4954754;28;20431;-71
2022/04/26 11:32:32;;;;;;;11.13;8.87;;;14.70;99.90;;;;;;4953950;28;20464;-71
2022/04/26 11:34:58;;;;;;;10.57;7.33;;;14.80;99.90;;;;;;4954893;28;20191;-72
2022/04/26 11:37:23;;;;;;;10.03;6.47;;;15.30;99.90;;;;;;4954908;28;20430;-70
2022/04/26 11:39:49;;;;;;;8.80;7.20;;;15.40;99.90;;;;;;4954128;28;20609;-71
2022/04/26 11:42:16;;;;;;;8.63;7.63;;;15.50;99.90;;;;;;4953897;28;20204;-70
2022/04/26 11:45:06;;;;;;;6.77;6.07;;;14.90;99.90;;;;;;4954694;28;20690;-68
2022/04/26 11:47:48;;;;;;;8.93;7.20;;;14.60;99.90;;;;;;4956089;28;20425;-74
2022/04/26 11:50:23;;;;;;;7.53;6.83;;;14.50;99.90;;;;;;4954841;28;20946;-72
2022/04/26 11:52:50;;;;;;;6.47;5.97;;;14.10;99.90;;;;;;4954205;28;20559;-71
2022/04/26 11:55:49;;;;;;;6.60;6.00;;;14.10;99.90;;;;;;4955049;28;20472;-71
2022/04/26 11:58:19;;;;;;;5.93;5.33;;;14.60;99.90;;;;;;4947883;28;20483;-71
2022/04/26 12:01:03;;;;;;;9.17;4.90;;;15.20;99.90;;;;;;4953148;28;20419;-71
2022/04/26 12:03:33;;;;;;;6.60;5.50;;;15.60;99.90;;;;;;4954519;28;20498;-71
2022/04/26 12:06:04;;;;;;;5.17;4.70;;;15.80;99.90;;;;;;4954280;28;20426;-71
2022/04/26 12:08:47;;;;;;;5.27;4.40;;;15.90;99.90;;;;;;4953552;28;20424;-72
2022/04/26 12:11:16;;;;;;;4.93;4.50;;;15.70;99.90;;;;;;4953250;28;20448;-71
2022/04/26 12:13:41;;;;;;;4.90;4.50;;;15.70;99.90;;;;;;4954206;28;20813;-69
2022/04/26 12:16:20;;;;;;;5.47;4.90;;;15.50;99.90;;;;;;4954137;28;20663;-72
2022/04/26 12:18:58;;;;;;;9.80;5.47;;;15.50;99.90;;;;;;4954339;28;20188;-72
2022/04/26 12:21:28;;;;;;;6.70;4.60;;;15.70;99.90;;;;;;4953309;28;20479;-71
2022/04/26 12:24:15;;;;;;;6.13;5.10;;;15.80;99.90;;;;;;4954064;28;20928;-72
2022/04/26 12:27:00;;;;;;;6.07;5.53;;;15.90;99.90;;;;;;4953779;28;20436;-69
2022/04/26 12:29:31;;;;;;;6.50;6.00;;;15.40;99.90;;;;;;4953878;28;20946;-71
2022/04/26 12:31:58;;;;;;;8.73;7.27;;;15.10;99.90;;;;;;4952845;28;20472;-72
2022/04/26 12:34:29;;;;;;;5.60;5.00;;;14.90;99.90;;;;;;4953515;28;20412;-71
2022/04/26 12:37:07;;;;;;;4.07;3.67;;;14.50;99.90;;;;;;4953553;28;20424;-71
2022/04/26 12:39:38;;;;;;;3.90;2.90;;;14.00;99.90;;;;;;4953552;28;20796;-72
2022/04/26 12:42:04;;;;;;;2.57;2.37;;;13.60;99.90;;;;;;4952899;28;20440;-71
2022/04/26 12:44:30;;;;;;;3.17;2.07;;;13.30;99.90;;;;;;4953631;28;20423;-72
2022/04/26 12:52:49;;;;;;;3.57;3.27;;;12.40;99.90;;;;;;4952763;28;20522;-71
2022/04/26 12:55:24;;;;;;;3.47;3.20;;;12.20;99.90;;;;;;4953154;28;20421;-71
2022/04/26 12:57:52;;;;;;;4.40;4.00;;;12.20;99.90;;;;;;4953638;28;20490;-72
2022/04/26 13:00:19;;;;;;;4.70;3.70;;;12.20;99.90;;;;;;4953181;28;20416;-71
2022/04/26 13:02:56;;;;;;;4.03;3.73;;;12.20;99.90;;;;;;4952720;28;20932;-68
2022/04/26 13:05:22;;;;;;;4.23;3.87;;;12.30;99.90;;;;;;4952524;28;20416;-69
2022/04/26 13:07:48;;;;;;;3.10;2.90;;;12.40;99.90;;;;;;4953264;28;20427;-71
2022/04/26 13:10:15;;;;;;;3.50;3.23;;;12.60;99.90;;;;;;4952887;28;20260;-71
2022/04/26 13:12:41;;;;;;;3.47;3.17;;;12.80;99.90;;;;;;4952295;28;20491;-68
2022/04/26 13:15:08;;;;;;;2.47;2.10;;;13.20;99.90;;;;;;4952398;28;20447;-71
2022/04/26 13:17:37;;;;;;;2.80;2.60;;;13.40;99.90;;;;;;4953183;28;20408;-71
2022/04/26 13:20:07;;;;;;;1.60;1.50;;;13.40;99.90;;;;;;4948033;28;20820;-72
2022/04/26 13:22:34;;;;;;;2.40;1.43;;;13.40;99.90;;;;;;4950915;28;20456;-71
2022/04/26 13:25:01;;;;;;;1.67;1.47;;;13.40;99.90;;;;;;4950653;28;20539;-71
2022/04/26 13:27:27;;;;;;;1.83;1.73;;;13.70;99.90;;;;;;4949299;28;20448;-71
2022/04/26 13:29:52;;;;;;;1.90;1.80;;;13.90;99.90;;;;;;4927857;28;20466;-72
2022/04/26 13:32:19;;;;;;;2.00;1.90;;;14.30;99.90;;;;;;4946651;28;20227;-71
2022/04/26 13:34:44;;;;;;;2.60;2.20;;;14.50;99.90;;;;;;4950458;28;20225;-71
2022/04/26 13:37:11;;;;;;;4.93;2.40;;;14.50;99.90;;;;;;4951540;28;20435;-71
2022/04/26 13:39:38;;;;;;;3.17;2.27;;;14.40;99.90;;;;;;4951485;28;20295;-69
2022/04/26 13:42:05;;;;;;;7.27;3.23;;;14.40;99.90;;;;;;4950607;28;20515;-70
2022/04/26 13:44:30;;;;;;;2.93;2.60;;;14.30;99.90;;;;;;4951008;28;20462;-72
2022/04/26 13:46:57;;;;;;;3.80;3.10;;;14.30;99.90;;;;;;4951849;28;20452;-71
2022/04/26 13:49:23;;;;;;;2.87;2.67;;;14.20;99.90;;;;;;4950919;28;20207;-72
2022/04/26 13:51:48;;;;;;;2.67;2.47;;;14.40;99.90;;;;;;4950815;28;20468;-71
2022/04/26 13:54:14;;;;;;;3.80;3.17;;;14.30;99.90;;;;;;4951703;28;20665;-71
2022/04/26 13:56:39;;;;;;;3.63;3.33;;;14.30;99.90;;;;;;4951489;28;20573;-71
2022/04/26 13:59:05;;;;;;;4.07;3.17;;;14.30;99.90;;;;;;4950528;28;20204;-72
2022/04/26 14:01:31;;;;;;;3.67;3.30;;;14.40;99.90;;;;;;4950658;28;20228;-72
2022/04/26 14:03:56;;;;;;;3.67;3.37;;;14.10;99.90;;;;;;4950699;28;20212;-70
2022/04/26 14:06:22;;;;;;;3.37;3.07;;;14.00;99.90;;;;;;4950746;28;20243;-71
2022/04/26 14:08:49;;;;;;;4.23;3.23;;;14.00;99.90;;;;;;4951447;28;20236;-70
2022/04/26 14:11:16;;;;;;;4.13;3.57;;;13.90;99.90;;;;;;4949569;28;20629;-72
2022/04/26 14:21:54;;;;;;;3.20;2.97;;;13.60;99.90;;;;;;4950297;28;20459;-71
2022/04/26 14:24:20;;;;;;;3.07;2.83;;;13.60;99.90;;;;;;4951144;28;20812;-70
2022/04/26 14:26:45;;;;;;;3.33;2.83;;;13.60;99.90;;;;;;4950572;28;20224;-71
2022/04/26 14:29:11;;;;;;;5.27;3.57;;;13.60;99.90;;;;;;4951374;28;20650;-72
2022/04/26 14:31:37;;;;;;;3.40;3.07;;;13.60;99.90;;;;;;4949904;28;20236;-68
2022/04/26 14:34:03;;;;;;;3.40;3.13;;;13.70;99.90;;;;;;4952888;28;20283;-70
2022/04/26 14:36:28;;;;;;;5.77;3.13;;;13.50;99.90;;;;;;4954541;28;20226;-71
2022/04/26 14:38:54;;;;;;;3.33;3.07;;;13.40;99.90;;;;;;4954979;28;20785;-72
2022/04/26 14:41:19;;;;;;;16.00;3.23;;;13.70;99.90;;;;;;4953484;28;20223;-72
2022/04/26 14:43:45;;;;;;;3.83;3.50;;;14.00;99.90;;;;;;4954180;28;20201;-71
2022/04/26 14:46:11;;;;;;;4.73;2.93;;;14.30;99.90;;;;;;4954427;28;20209;-71
2022/04/26 14:48:38;;;;;;;4.30;3.00;;;14.50;99.90;;;;;;4970760;28;20184;-68
2022/04/26 14:51:05;;;;;;;5.13;2.93;;;14.30;99.90;;;;;;4973936;28;20279;-71
2022/04/26 14:53:30;;;;;;;2.50;2.30;;;14.30;99.90;;;;;;4975104;28;20462;-71
2022/04/26 14:55:59;;;;;;;3.00;2.70;;;14.10;99.90;;;;;;4975108;28;20446;-71
2022/04/26 14:58:26;;;;;;;3.20;2.90;;;14.00;99.90;;;;;;4974258;28;20239;-71
2022/04/26 15:00:52;;;;;;;9.80;3.00;;;14.00;99.90;;;;;;4973799;28;20438;-68
2022/04/26 15:03:17;;;;;;;3.80;2.47;;;14.00;99.90;;;;;;4974604;28;20410;-70
2022/04/26 15:05:43;;;;;;;2.67;2.47;;;13.90;99.90;;;;;;4974295;28;20944;-71
2022/04/26 15:10:53;;;;;;;6.37;2.90;;;13.80;99.90;;;;;;4973190;28;20191;-70
2022/04/26 15:18:47;;;;;;;14.67;6.90;;;13.80;99.90;;;;;;4974798;28;20486;-71
2022/04/26 15:21:12;;;;;;;3.30;2.97;;;13.60;99.90;;;;;;4972919;28;20431;-71
2022/04/26 15:23:38;;;;;;;5.70;4.13;;;13.30;99.90;;;;;;4974223;28;20233;-70
2022/04/26 15:26:06;;;;;;;3.40;2.87;;;13.20;99.90;;;;;;4974022;28;20180;-71
2022/04/26 15:28:33;;;;;;;4.87;2.63;;;13.10;99.90;;;;;;4974344;28;20608;-71
2022/04/26 15:30:59;;;;;;;3.20;2.90;;;13.00;99.90;;;;;;4973295;28;20445;-70
2022/04/26 15:33:25;;;;;;;2.80;2.60;;;12.90;99.90;;;;;;4974811;28;20465;-71
2022/04/26 15:35:51;;;;;;;2.30;2.20;;;12.90;99.90;;;;;;4975458;28;20419;-71
2022/04/26 15:38:17;;;;;;;4.17;3.70;;;12.70;99.90;;;;;;4974537;28;20195;-68
2022/04/26 15:40:46;;;;;;;4.83;4.40;;;12.60;99.90;;;;;;4974194;28;20482;-72
2022/04/26 15:43:12;;;;;;;6.63;5.30;;;12.30;99.90;;;;;;4973976;28;20916;-72
2022/04/26 15:45:38;;;;;;;5.73;4.47;;;12.00;99.90;;;;;;4974511;28;20749;-71
2022/04/26 15:48:05;;;;;;;5.80;4.70;;;11.70;99.90;;;;;;4974493;28;20896;-71
2022/04/26 15:50:30;;;;;;;4.53;4.13;;;11.50;99.90;;;;;;4974340;28;20426;-72
2022/04/26 15:52:56;;;;;;;4.43;3.93;;;11.40;99.90;;;;;;4973871;28;20841;-71
2022/04/26 15:55:22;;;;;;;4.60;3.80;;;11.30;99.90;;;;;;4974350;28;20179;-70
2022/04/26 15:57:49;;;;;;;7.40;3.80;;;11.20;99.90;;;;;;4974241;28;20186;-71
2022/04/26 16:00:16;;;;;;;4.13;3.83;;;11.10;99.90;;;;;;4973432;28;20445;-71
2022/04/26 16:02:43;;;;;;;3.87;3.57;;;11.00;99.90;;;;;;4972299;28;20430;-71
2022/04/26 16:05:09;;;;;;;3.73;3.37;;;10.90;99.90;;;;;;4973292;28;20423;-70
2022/04/26 16:07:35;;;;;;;5.00;3.13;;;10.80;99.90;;;;;;4973831;28;20944;-71
2022/04/26 16:20:57;;;;;;;3.63;3.43;;;10.50;99.90;;;;;;4972652;28;20472;-68
2022/04/26 16:23:22;;;;;;;3.90;2.63;;;10.50;99.90;;;;;;4973429;28;20461;-71
2022/04/26 16:25:48;;;;;;;3.30;3.00;;;10.50;99.90;;;;;;4973277;28;20512;-71
2022/04/26 16:28:14;;;;;;;2.90;2.80;;;10.50;99.90;;;;;;4972660;28;20183;-71
2022/04/26 16:30:41;;;;;;;3.70;3.20;;;10.50;99.90;;;;;;4972379;28;20269;-71
2022/04/26 16:33:07;;;;;;;3.07;2.73;;;10.50;99.90;;;;;;4972838;28;20463;-71
2022/04/26 16:35:33;;;;;;;2.30;2.10;;;10.50;99.90;;;;;;4972911;28;20419;-71
2022/04/26 16:37:58;;;;;;;2.23;2.13;;;10.60;99.90;;;;;;4972463;28;20438;-72
2022/04/26 16:40:24;;;;;;;2.23;2.00;;;10.50;99.90;;;;;;4972507;28;20190;-70
2022/04/26 16:42:50;;;;;;;3.67;2.70;;;10.40;99.90;;;;;;4972605;28;20202;-71
2022/04/26 16:45:16;;;;;;;2.20;2.10;;;10.30;99.90;;;;;;4972176;28;20435;-71
2022/04/26 16:47:42;;;;;;;2.20;2.10;;;10.30;99.90;;;;;;4972579;28;20414;-71
2022/04/26 16:50:08;;;;;;;2.00;1.80;;;10.30;99.90;;;;;;4972547;28;20185;-72
2022/04/26 16:52:37;;;;;;;1.40;1.30;;;10.20;99.90;;;;;;4971927;28;20293;-70
2022/04/26 16:55:04;;;;;;;2.33;1.97;;;10.10;99.90;;;;;;4971959;28;20416;-72
2022/04/26 16:57:31;;;;;;;1.77;1.67;;;10.10;99.90;;;;;;4971847;28;20437;-71
2022/04/26 16:59:57;;;;;;;1.87;1.77;;;10.00;99.90;;;;;;4972299;28;20511;-69
2022/04/26 17:02:26;;;;;;;1.80;1.70;;;10.10;99.90;;;;;;4971453;28;20444;-69
2022/04/26 17:04:52;;;;;;;3.07;2.07;;;10.10;99.90;;;;;;4972110;28;20425;-71
2022/04/26 17:07:18;;;;;;;1.80;1.70;;;10.10;99.90;;;;;;4945345;28;20476;-72
2022/04/26 17:09:44;;;;;;;1.70;1.60;;;10.00;99.90;;;;;;4944840;28;20822;-69
2022/04/26 17:12:12;;;;;;;1.80;1.40;;;10.00;99.90;;;;;;4966690;28;20560;-71